sensor_id;sensor_type;location;lat;lon;timestamp;temperature;humidity
13458;DHT22;6801;53.018;11.560;2023-07-09T00:00:46;24.10;45.50
13458;DHT22;6801;53.018;11.560;2023-07-09T00:03:15;24.10;45.50
13458;DHT22;6801;53.018;11.560;2023-07-09T00:05:42;24.00;45.60
13458;DHT22;6801;53.018;11.560;2023-07-09T00:08:24;24.00;45.70
13458;DHT22;6801;53.018;11.560;2023-07-09T00:10:52;23.90;45.70
13458;DHT22;6801;53.018;11.560;2023-07-09T00:13:19;23.90;45.70
13458;DHT22;6801;53.018;11.560;2023-07-09T00:15:46;23.80;45.90
13458;DHT22;6801;53.018;11.560;2023-07-09T00:18:13;23.80;46.00
13458;DHT22;6801;53.018;11.560;2023-07-09T00:20:40;23.70;46.10
13458;DHT22;6801;53.018;11.560;2023-07-09T00:23:09;23.70;46.30
13458;DHT22;6801;53.018;11.560;2023-07-09T00:25:40;23.60;46.30
13458;DHT22;6801;53.018;11.560;2023-07-09T00:28:12;23.50;46.20
13458;DHT22;6801;53.018;11.560;2023-07-09T00:30:41;23.50;46.40
13458;DHT22;6801;53.018;11.560;2023-07-09T00:33:11;23.50;46.60
13458;DHT22;6801;53.018;11.560;2023-07-09T00:35:40;23.40;46.80
13458;DHT22;6801;53.018;11.560;2023-07-09T00:38:13;23.40;47.00
13458;DHT22;6801;53.018;11.560;2023-07-09T00:40:47;23.30;47.10
13458;DHT22;6801;53.018;11.560;2023-07-09T00:43:16;23.30;46.90
13458;DHT22;6801;53.018;11.560;2023-07-09T00:45:43;23.20;46.90
13458;DHT22;6801;53.018;11.560;2023-07-09T00:48:14;23.20;46.80
13458;DHT22;6801;53.018;11.560;2023-07-09T00:50:46;23.10;47.00
13458;DHT22;6801;53.018;11.560;2023-07-09T00:53:16;23.10;47.20
13458;DHT22;6801;53.018;11.560;2023-07-09T00:55:51;23.00;47.30
13458;DHT22;6801;53.018;11.560;2023-07-09T00:58:19;23.00;47.20
13458;DHT22;6801;53.018;11.560;2023-07-09T01:00:55;23.00;47.20
13458;DHT22;6801;53.018;11.560;2023-07-09T01:03:27;22.90;47.80
13458;DHT22;6801;53.018;11.560;2023-07-09T01:05:56;22.90;47.50
13458;DHT22;6801;53.018;11.560;2023-07-09T01:08:24;22.90;47.40
13458;DHT22;6801;53.018;11.560;2023-07-09T01:10:58;22.80;47.40
13458;DHT22;6801;53.018;11.560;2023-07-09T01:13:26;22.70;47.70
13458;DHT22;6801;53.018;11.560;2023-07-09T01:15:53;22.70;47.90
13458;DHT22;6801;53.018;11.560;2023-07-09T01:18:21;22.60;47.90
13458;DHT22;6801;53.018;11.560;2023-07-09T01:20:50;22.50;48.00
13458;DHT22;6801;53.018;11.560;2023-07-09T01:23:20;22.50;47.90
13458;DHT22;6801;53.018;11.560;2023-07-09T01:25:50;22.50;47.80
13458;DHT22;6801;53.018;11.560;2023-07-09T01:28:19;22.50;47.90
13458;DHT22;6801;53.018;11.560;2023-07-09T01:30:47;22.40;47.90
13458;DHT22;6801;53.018;11.560;2023-07-09T01:33:20;22.40;47.90
13458;DHT22;6801;53.018;11.560;2023-07-09T01:35:48;22.30;48.10
13458;DHT22;6801;53.018;11.560;2023-07-09T01:38:15;22.30;48.10
13458;DHT22;6801;53.018;11.560;2023-07-09T01:40:44;22.20;48.10
13458;DHT22;6801;53.018;11.560;2023-07-09T01:43:12;22.20;48.10
13458;DHT22;6801;53.018;11.560;2023-07-09T01:45:39;22.10;48.10
13458;DHT22;6801;53.018;11.560;2023-07-09T01:48:06;22.10;48.30
13458;DHT22;6801;53.018;11.560;2023-07-09T01:50:42;22.00;48.40
13458;DHT22;6801;53.018;11.560;2023-07-09T01:53:10;22.00;48.40
13458;DHT22;6801;53.018;11.560;2023-07-09T01:55:40;22.00;48.30
13458;DHT22;6801;53.018;11.560;2023-07-09T01:58:09;22.00;48.30
13458;DHT22;6801;53.018;11.560;2023-07-09T02:00:37;22.00;48.50
13458;DHT22;6801;53.018;11.560;2023-07-09T02:03:07;22.00;48.40
13458;DHT22;6801;53.018;11.560;2023-07-09T02:05:36;22.00;48.50
13458;DHT22;6801;53.018;11.560;2023-07-09T02:08:03;21.90;48.50
13458;DHT22;6801;53.018;11.560;2023-07-09T02:10:31;21.90;48.60
13458;DHT22;6801;53.018;11.560;2023-07-09T02:12:59;21.80;48.40
13458;DHT22;6801;53.018;11.560;2023-07-09T02:15:27;21.80;48.40
13458;DHT22;6801;53.018;11.560;2023-07-09T02:17:56;21.80;48.40
13458;DHT22;6801;53.018;11.560;2023-07-09T02:20:24;21.70;48.50
13458;DHT22;6801;53.018;11.560;2023-07-09T02:22:52;21.70;48.40
13458;DHT22;6801;53.018;11.560;2023-07-09T02:25:19;21.60;48.70
13458;DHT22;6801;53.018;11.560;2023-07-09T02:27:46;21.60;48.80
13458;DHT22;6801;53.018;11.560;2023-07-09T02:30:13;21.60;48.90
13458;DHT22;6801;53.018;11.560;2023-07-09T02:32:42;21.50;48.90
13458;DHT22;6801;53.018;11.560;2023-07-09T02:35:09;21.50;48.80
13458;DHT22;6801;53.018;11.560;2023-07-09T02:37:36;21.50;48.80
13458;DHT22;6801;53.018;11.560;2023-07-09T02:40:05;21.50;48.80
13458;DHT22;6801;53.018;11.560;2023-07-09T02:42:32;21.50;48.80
13458;DHT22;6801;53.018;11.560;2023-07-09T02:44:59;21.50;48.80
13458;DHT22;6801;53.018;11.560;2023-07-09T02:47:28;21.40;48.80
13458;DHT22;6801;53.018;11.560;2023-07-09T02:49:58;21.40;48.90
13458;DHT22;6801;53.018;11.560;2023-07-09T02:52:25;21.40;48.90
13458;DHT22;6801;53.018;11.560;2023-07-09T02:54:52;21.30;48.90
13458;DHT22;6801;53.018;11.560;2023-07-09T02:57:19;21.30;48.80
13458;DHT22;6801;53.018;11.560;2023-07-09T02:59:46;21.20;48.90
13458;DHT22;6801;53.018;11.560;2023-07-09T03:02:13;21.20;49.00
13458;DHT22;6801;53.018;11.560;2023-07-09T03:04:40;21.20;49.00
13458;DHT22;6801;53.018;11.560;2023-07-09T03:07:08;21.20;49.00
13458;DHT22;6801;53.018;11.560;2023-07-09T03:09:35;21.10;49.10
13458;DHT22;6801;53.018;11.560;2023-07-09T03:12:03;21.10;49.10
13458;DHT22;6801;53.018;11.560;2023-07-09T03:14:30;21.00;49.10
13458;DHT22;6801;53.018;11.560;2023-07-09T03:16:57;21.00;49.20
13458;DHT22;6801;53.018;11.560;2023-07-09T03:19:24;21.00;49.30
13458;DHT22;6801;53.018;11.560;2023-07-09T03:21:51;21.00;49.30
13458;DHT22;6801;53.018;11.560;2023-07-09T03:24:19;20.90;49.30
13458;DHT22;6801;53.018;11.560;2023-07-09T03:26:47;20.90;49.40
13458;DHT22;6801;53.018;11.560;2023-07-09T03:29:14;20.90;49.40
13458;DHT22;6801;53.018;11.560;2023-07-09T03:31:41;20.90;49.60
13458;DHT22;6801;53.018;11.560;2023-07-09T03:34:08;20.90;49.60
13458;DHT22;6801;53.018;11.560;2023-07-09T03:36:35;20.80;49.60
13458;DHT22;6801;53.018;11.560;2023-07-09T03:39:03;20.80;49.70
13458;DHT22;6801;53.018;11.560;2023-07-09T03:41:31;20.80;49.70
13458;DHT22;6801;53.018;11.560;2023-07-09T03:43:58;20.80;49.70
13458;DHT22;6801;53.018;11.560;2023-07-09T03:46:25;20.70;49.70
13458;DHT22;6801;53.018;11.560;2023-07-09T03:48:52;20.70;49.80
13458;DHT22;6801;53.018;11.560;2023-07-09T03:51:19;20.70;49.90
13458;DHT22;6801;53.018;11.560;2023-07-09T03:53:46;20.70;49.90
13458;DHT22;6801;53.018;11.560;2023-07-09T03:56:13;20.70;49.90
13458;DHT22;6801;53.018;11.560;2023-07-09T03:58:41;20.60;50.10
13458;DHT22;6801;53.018;11.560;2023-07-09T04:01:08;20.60;50.40
13458;DHT22;6801;53.018;11.560;2023-07-09T04:03:35;20.50;51.10
13458;DHT22;6801;53.018;11.560;2023-07-09T04:06:02;20.50;51.20
13458;DHT22;6801;53.018;11.560;2023-07-09T04:08:29;20.60;51.20
13458;DHT22;6801;53.018;11.560;2023-07-09T04:10:59;20.60;50.80
13458;DHT22;6801;53.018;11.560;2023-07-09T04:13:26;20.60;50.80
13458;DHT22;6801;53.018;11.560;2023-07-09T04:15:55;20.60;50.60
13458;DHT22;6801;53.018;11.560;2023-07-09T04:18:22;20.70;50.50
13458;DHT22;6801;53.018;11.560;2023-07-09T04:20:50;20.70;50.30
13458;DHT22;6801;53.018;11.560;2023-07-09T04:23:17;20.70;50.20
13458;DHT22;6801;53.018;11.560;2023-07-09T04:25:44;20.70;50.20
13458;DHT22;6801;53.018;11.560;2023-07-09T04:28:11;20.80;50.20
13458;DHT22;6801;53.018;11.560;2023-07-09T04:30:38;20.80;50.20
13458;DHT22;6801;53.018;11.560;2023-07-09T04:33:06;20.80;50.30
13458;DHT22;6801;53.018;11.560;2023-07-09T04:35:35;20.80;50.40
13458;DHT22;6801;53.018;11.560;2023-07-09T04:38:01;20.90;49.80
13458;DHT22;6801;53.018;11.560;2023-07-09T04:40:29;20.90;50.10
13458;DHT22;6801;53.018;11.560;2023-07-09T04:42:56;20.90;49.90
13458;DHT22;6801;53.018;11.560;2023-07-09T04:45:23;21.00;49.70
13458;DHT22;6801;53.018;11.560;2023-07-09T04:47:50;21.00;49.60
13458;DHT22;6801;53.018;11.560;2023-07-09T04:50:19;21.00;49.50
13458;DHT22;6801;53.018;11.560;2023-07-09T04:52:46;21.10;49.50
13458;DHT22;6801;53.018;11.560;2023-07-09T04:55:13;21.10;49.40
13458;DHT22;6801;53.018;11.560;2023-07-09T04:57:40;21.10;49.40
13458;DHT22;6801;53.018;11.560;2023-07-09T05:00:08;21.00;49.50
13458;DHT22;6801;53.018;11.560;2023-07-09T05:02:35;21.10;49.60
13458;DHT22;6801;53.018;11.560;2023-07-09T05:05:02;21.10;49.60
13458;DHT22;6801;53.018;11.560;2023-07-09T05:07:32;21.10;49.80
13458;DHT22;6801;53.018;11.560;2023-07-09T05:09:59;21.10;49.90
13458;DHT22;6801;53.018;11.560;2023-07-09T05:12:26;21.20;49.90
13458;DHT22;6801;53.018;11.560;2023-07-09T05:14:54;21.20;49.90
13458;DHT22;6801;53.018;11.560;2023-07-09T05:17:22;21.20;50.00
13458;DHT22;6801;53.018;11.560;2023-07-09T05:19:50;21.20;50.20
13458;DHT22;6801;53.018;11.560;2023-07-09T05:22:17;21.20;50.30
13458;DHT22;6801;53.018;11.560;2023-07-09T05:24:45;21.20;50.40
13458;DHT22;6801;53.018;11.560;2023-07-09T05:27:12;21.20;50.50
13458;DHT22;6801;53.018;11.560;2023-07-09T05:29:39;21.20;50.40
13458;DHT22;6801;53.018;11.560;2023-07-09T05:32:06;21.20;50.60
13458;DHT22;6801;53.018;11.560;2023-07-09T05:34:33;21.20;50.80
13458;DHT22;6801;53.018;11.560;2023-07-09T05:37:00;21.20;50.80
13458;DHT22;6801;53.018;11.560;2023-07-09T05:39:27;21.30;50.80
13458;DHT22;6801;53.018;11.560;2023-07-09T05:41:55;21.30;50.90
13458;DHT22;6801;53.018;11.560;2023-07-09T05:44:22;21.30;51.00
13458;DHT22;6801;53.018;11.560;2023-07-09T05:46:49;21.30;51.10
13458;DHT22;6801;53.018;11.560;2023-07-09T05:49:16;21.30;51.20
13458;DHT22;6801;53.018;11.560;2023-07-09T05:51:43;21.30;51.20
13458;DHT22;6801;53.018;11.560;2023-07-09T05:54:10;21.40;51.20
13458;DHT22;6801;53.018;11.560;2023-07-09T05:56:37;21.40;51.30
13458;DHT22;6801;53.018;11.560;2023-07-09T05:59:06;21.40;51.40
13458;DHT22;6801;53.018;11.560;2023-07-09T06:01:33;21.40;51.40
13458;DHT22;6801;53.018;11.560;2023-07-09T06:04:00;21.40;51.40
13458;DHT22;6801;53.018;11.560;2023-07-09T06:06:27;21.50;51.40
13458;DHT22;6801;53.018;11.560;2023-07-09T06:08:54;21.50;51.80
13458;DHT22;6801;53.018;11.560;2023-07-09T06:11:21;21.50;52.00
13458;DHT22;6801;53.018;11.560;2023-07-09T06:13:49;21.60;51.80
13458;DHT22;6801;53.018;11.560;2023-07-09T06:16:17;21.60;51.90
13458;DHT22;6801;53.018;11.560;2023-07-09T06:18:44;21.60;52.10
13458;DHT22;6801;53.018;11.560;2023-07-09T06:21:11;21.70;51.90
13458;DHT22;6801;53.018;11.560;2023-07-09T06:23:38;21.70;51.90
13458;DHT22;6801;53.018;11.560;2023-07-09T06:26:05;21.80;52.00
13458;DHT22;6801;53.018;11.560;2023-07-09T06:28:32;21.90;52.00
13458;DHT22;6801;53.018;11.560;2023-07-09T06:31:00;21.90;52.20
13458;DHT22;6801;53.018;11.560;2023-07-09T06:33:29;22.00;52.10
13458;DHT22;6801;53.018;11.560;2023-07-09T06:35:57;22.00;52.00
13458;DHT22;6801;53.018;11.560;2023-07-09T06:38:24;22.10;52.00
13458;DHT22;6801;53.018;11.560;2023-07-09T06:40:52;22.20;51.80
13458;DHT22;6801;53.018;11.560;2023-07-09T06:43:19;22.30;51.70
13458;DHT22;6801;53.018;11.560;2023-07-09T06:45:49;22.40;51.60
13458;DHT22;6801;53.018;11.560;2023-07-09T06:48:16;22.50;51.50
13458;DHT22;6801;53.018;11.560;2023-07-09T06:50:44;22.50;51.30
13458;DHT22;6801;53.018;11.560;2023-07-09T06:53:11;22.60;51.20
13458;DHT22;6801;53.018;11.560;2023-07-09T06:55:38;22.70;50.90
13458;DHT22;6801;53.018;11.560;2023-07-09T06:58:05;22.90;50.80
13458;DHT22;6801;53.018;11.560;2023-07-09T07:00:33;22.90;50.70
13458;DHT22;6801;53.018;11.560;2023-07-09T07:03:01;23.00;50.60
13458;DHT22;6801;53.018;11.560;2023-07-09T07:05:28;23.20;50.50
13458;DHT22;6801;53.018;11.560;2023-07-09T07:07:57;23.30;50.20
13458;DHT22;6801;53.018;11.560;2023-07-09T07:10:24;23.40;50.20
13458;DHT22;6801;53.018;11.560;2023-07-09T07:12:52;23.50;50.20
13458;DHT22;6801;53.018;11.560;2023-07-09T07:15:19;23.60;50.00
13458;DHT22;6801;53.018;11.560;2023-07-09T07:17:46;23.70;49.60
13458;DHT22;6801;53.018;11.560;2023-07-09T07:20:14;23.80;49.60
13458;DHT22;6801;53.018;11.560;2023-07-09T07:22:42;24.00;49.50
13458;DHT22;6801;53.018;11.560;2023-07-09T07:25:11;24.10;49.20
13458;DHT22;6801;53.018;11.560;2023-07-09T07:27:38;24.20;49.20
13458;DHT22;6801;53.018;11.560;2023-07-09T07:30:06;24.30;49.00
13458;DHT22;6801;53.018;11.560;2023-07-09T07:32:35;24.40;48.80
13458;DHT22;6801;53.018;11.560;2023-07-09T07:35:03;24.60;48.60
13458;DHT22;6801;53.018;11.560;2023-07-09T07:37:30;24.80;48.10
13458;DHT22;6801;53.018;11.560;2023-07-09T07:39:57;24.90;48.00
13458;DHT22;6801;53.018;11.560;2023-07-09T07:42:26;25.00;47.70
13458;DHT22;6801;53.018;11.560;2023-07-09T07:44:53;25.10;47.60
13458;DHT22;6801;53.018;11.560;2023-07-09T07:47:20;25.20;47.40
13458;DHT22;6801;53.018;11.560;2023-07-09T07:49:48;25.30;47.40
13458;DHT22;6801;53.018;11.560;2023-07-09T07:52:15;25.40;47.20
13458;DHT22;6801;53.018;11.560;2023-07-09T07:54:42;25.60;46.70
13458;DHT22;6801;53.018;11.560;2023-07-09T07:57:09;25.70;46.70
13458;DHT22;6801;53.018;11.560;2023-07-09T07:59:39;25.70;46.70
13458;DHT22;6801;53.018;11.560;2023-07-09T08:02:11;25.90;46.70
13458;DHT22;6801;53.018;11.560;2023-07-09T08:04:38;25.90;46.50
13458;DHT22;6801;53.018;11.560;2023-07-09T08:07:06;26.00;46.40
13458;DHT22;6801;53.018;11.560;2023-07-09T08:09:33;26.20;46.10
13458;DHT22;6801;53.018;11.560;2023-07-09T08:12:01;26.20;45.90
13458;DHT22;6801;53.018;11.560;2023-07-09T08:14:30;26.30;45.80
13458;DHT22;6801;53.018;11.560;2023-07-09T08:16:59;26.40;45.80
13458;DHT22;6801;53.018;11.560;2023-07-09T08:19:26;26.50;45.70
13458;DHT22;6801;53.018;11.560;2023-07-09T08:21:53;26.60;45.50
13458;DHT22;6801;53.018;11.560;2023-07-09T08:24:20;26.80;45.20
13458;DHT22;6801;53.018;11.560;2023-07-09T08:26:46;26.90;45.00
13458;DHT22;6801;53.018;11.560;2023-07-09T08:29:13;27.00;44.90
13458;DHT22;6801;53.018;11.560;2023-07-09T08:31:40;27.10;44.50
13458;DHT22;6801;53.018;11.560;2023-07-09T08:34:09;27.20;44.40
13458;DHT22;6801;53.018;11.560;2023-07-09T08:36:35;27.30;44.30
13458;DHT22;6801;53.018;11.560;2023-07-09T08:39:02;27.40;44.20
13458;DHT22;6801;53.018;11.560;2023-07-09T08:41:39;27.50;44.00
13458;DHT22;6801;53.018;11.560;2023-07-09T08:44:19;27.70;43.70
13458;DHT22;6801;53.018;11.560;2023-07-09T08:47:00;27.80;43.10
13458;DHT22;6801;53.018;11.560;2023-07-09T08:49:37;28.00;43.00
13458;DHT22;6801;53.018;11.560;2023-07-09T08:52:12;28.00;43.00
13458;DHT22;6801;53.018;11.560;2023-07-09T08:54:42;28.00;42.90
13458;DHT22;6801;53.018;11.560;2023-07-09T08:57:17;28.10;42.80
13458;DHT22;6801;53.018;11.560;2023-07-09T08:59:46;28.20;42.70
13458;DHT22;6801;53.018;11.560;2023-07-09T09:02:27;28.30;42.80
13458;DHT22;6801;53.018;11.560;2023-07-09T09:04:57;28.50;41.70
13458;DHT22;6801;53.018;11.560;2023-07-09T09:07:35;28.50;41.50
13458;DHT22;6801;53.018;11.560;2023-07-09T09:10:05;28.70;41.50
13458;DHT22;6801;53.018;11.560;2023-07-09T09:12:38;28.80;41.60
13458;DHT22;6801;53.018;11.560;2023-07-09T09:15:12;28.90;41.10
13458;DHT22;6801;53.018;11.560;2023-07-09T09:17:40;29.00;40.90
13458;DHT22;6801;53.018;11.560;2023-07-09T09:20:12;29.10;41.10
13458;DHT22;6801;53.018;11.560;2023-07-09T09:22:44;29.20;41.10
13458;DHT22;6801;53.018;11.560;2023-07-09T09:25:20;29.40;40.20
13458;DHT22;6801;53.018;11.560;2023-07-09T09:27:48;29.50;40.30
13458;DHT22;6801;53.018;11.560;2023-07-09T09:30:17;29.50;40.50
13458;DHT22;6801;53.018;11.560;2023-07-09T09:32:47;29.60;40.20
13458;DHT22;6801;53.018;11.560;2023-07-09T09:35:18;29.70;40.00
13458;DHT22;6801;53.018;11.560;2023-07-09T09:37:51;29.80;39.70
13458;DHT22;6801;53.018;11.560;2023-07-09T09:40:19;30.00;39.30
13458;DHT22;6801;53.018;11.560;2023-07-09T09:42:48;30.00;38.80
13458;DHT22;6801;53.018;11.560;2023-07-09T09:45:17;30.10;38.90
13458;DHT22;6801;53.018;11.560;2023-07-09T09:47:45;30.20;38.60
13458;DHT22;6801;53.018;11.560;2023-07-09T09:50:16;30.30;38.70
13458;DHT22;6801;53.018;11.560;2023-07-09T09:52:43;30.40;38.40
13458;DHT22;6801;53.018;11.560;2023-07-09T09:55:16;30.50;38.20
13458;DHT22;6801;53.018;11.560;2023-07-09T09:57:48;30.70;37.50
13458;DHT22;6801;53.018;11.560;2023-07-09T10:00:17;30.80;37.70
13458;DHT22;6801;53.018;11.560;2023-07-09T10:02:45;30.80;37.70
13458;DHT22;6801;53.018;11.560;2023-07-09T10:05:13;30.90;36.90
13458;DHT22;6801;53.018;11.560;2023-07-09T10:07:45;31.00;36.90
13458;DHT22;6801;53.018;11.560;2023-07-09T10:10:18;31.10;36.40
13458;DHT22;6801;53.018;11.560;2023-07-09T10:12:50;31.20;36.00
13458;DHT22;6801;53.018;11.560;2023-07-09T10:15:26;31.30;36.00
13458;DHT22;6801;53.018;11.560;2023-07-09T10:17:59;31.40;36.00
13458;DHT22;6801;53.018;11.560;2023-07-09T10:20:34;31.50;35.40
13458;DHT22;6801;53.018;11.560;2023-07-09T10:23:15;31.50;35.50
13458;DHT22;6801;53.018;11.560;2023-07-09T10:25:49;31.60;35.20
13458;DHT22;6801;53.018;11.560;2023-07-09T10:28:28;31.80;34.80
13458;DHT22;6801;53.018;11.560;2023-07-09T10:31:06;31.90;34.70
13458;DHT22;6801;53.018;11.560;2023-07-09T10:33:45;32.00;33.90
13458;DHT22;6801;53.018;11.560;2023-07-09T10:36:25;32.10;33.80
13458;DHT22;6801;53.018;11.560;2023-07-09T10:39:00;32.20;33.90
13458;DHT22;6801;53.018;11.560;2023-07-09T10:41:30;32.30;33.40
13458;DHT22;6801;53.018;11.560;2023-07-09T10:44:03;32.40;32.60
13458;DHT22;6801;53.018;11.560;2023-07-09T10:46:37;32.40;32.80
13458;DHT22;6801;53.018;11.560;2023-07-09T10:49:07;32.50;32.80
13458;DHT22;6801;53.018;11.560;2023-07-09T10:51:38;32.60;32.30
13458;DHT22;6801;53.018;11.560;2023-07-09T10:54:14;32.60;32.80
13458;DHT22;6801;53.018;11.560;2023-07-09T10:56:43;32.60;31.50
13458;DHT22;6801;53.018;11.560;2023-07-09T10:59:20;32.70;31.90
13458;DHT22;6801;53.018;11.560;2023-07-09T11:01:51;32.80;31.70
13458;DHT22;6801;53.018;11.560;2023-07-09T11:04:27;32.90;31.20
13458;DHT22;6801;53.018;11.560;2023-07-09T11:06:59;33.00;31.00
13458;DHT22;6801;53.018;11.560;2023-07-09T11:09:31;33.00;30.80
13458;DHT22;6801;53.018;11.560;2023-07-09T11:12:02;33.20;30.80
13458;DHT22;6801;53.018;11.560;2023-07-09T11:14:34;33.30;29.90
13458;DHT22;6801;53.018;11.560;2023-07-09T11:17:04;33.30;29.90
13458;DHT22;6801;53.018;11.560;2023-07-09T11:19:41;33.40;29.70
13458;DHT22;6801;53.018;11.560;2023-07-09T11:22:15;33.40;29.20
13458;DHT22;6801;53.018;11.560;2023-07-09T11:24:50;33.50;28.90
13458;DHT22;6801;53.018;11.560;2023-07-09T11:27:20;33.50;29.40
13458;DHT22;6801;53.018;11.560;2023-07-09T11:29:48;33.50;29.50
13458;DHT22;6801;53.018;11.560;2023-07-09T11:32:20;33.60;29.50
13458;DHT22;6801;53.018;11.560;2023-07-09T11:34:48;33.60;29.30
13458;DHT22;6801;53.018;11.560;2023-07-09T11:37:16;33.70;29.00
13458;DHT22;6801;53.018;11.560;2023-07-09T11:39:45;33.70;29.00
13458;DHT22;6801;53.018;11.560;2023-07-09T11:42:29;33.80;29.00
13458;DHT22;6801;53.018;11.560;2023-07-09T11:45:02;33.80;28.90
13458;DHT22;6801;53.018;11.560;2023-07-09T11:47:30;33.90;28.60
13458;DHT22;6801;53.018;11.560;2023-07-09T11:50:01;34.00;28.70
13458;DHT22;6801;53.018;11.560;2023-07-09T11:52:33;34.10;28.50
13458;DHT22;6801;53.018;11.560;2023-07-09T11:55:20;34.20;28.40
13458;DHT22;6801;53.018;11.560;2023-07-09T11:57:53;34.30;27.90
13458;DHT22;6801;53.018;11.560;2023-07-09T12:00:20;34.30;28.10
13458;DHT22;6801;53.018;11.560;2023-07-09T12:02:47;34.40;27.80
13458;DHT22;6801;53.018;11.560;2023-07-09T12:05:19;34.40;28.00
13458;DHT22;6801;53.018;11.560;2023-07-09T12:07:48;34.40;27.60
13458;DHT22;6801;53.018;11.560;2023-07-09T12:10:20;34.50;27.90
13458;DHT22;6801;53.018;11.560;2023-07-09T12:12:48;34.50;27.50
13458;DHT22;6801;53.018;11.560;2023-07-09T12:15:23;34.60;27.60
13458;DHT22;6801;53.018;11.560;2023-07-09T12:17:56;34.60;27.50
13458;DHT22;6801;53.018;11.560;2023-07-09T12:20:24;34.70;27.60
13458;DHT22;6801;53.018;11.560;2023-07-09T12:22:51;34.80;27.60
13458;DHT22;6801;53.018;11.560;2023-07-09T12:25:22;34.80;27.30
13458;DHT22;6801;53.018;11.560;2023-07-09T12:27:49;34.90;27.10
13458;DHT22;6801;53.018;11.560;2023-07-09T12:30:17;34.90;27.20
13458;DHT22;6801;53.018;11.560;2023-07-09T12:32:46;34.90;27.10
13458;DHT22;6801;53.018;11.560;2023-07-09T12:35:16;35.00;26.90
13458;DHT22;6801;53.018;11.560;2023-07-09T12:37:45;35.00;26.80
13458;DHT22;6801;53.018;11.560;2023-07-09T12:40:15;35.00;27.30
13458;DHT22;6801;53.018;11.560;2023-07-09T12:42:43;35.10;26.60
13458;DHT22;6801;53.018;11.560;2023-07-09T12:45:15;35.00;27.40
13458;DHT22;6801;53.018;11.560;2023-07-09T12:47:44;35.10;26.60
13458;DHT22;6801;53.018;11.560;2023-07-09T12:50:26;35.10;27.20
13458;DHT22;6801;53.018;11.560;2023-07-09T12:52:55;35.00;27.50
13458;DHT22;6801;53.018;11.560;2023-07-09T12:55:24;35.10;27.50
13458;DHT22;6801;53.018;11.560;2023-07-09T12:57:54;35.20;27.20
13458;DHT22;6801;53.018;11.560;2023-07-09T13:00:22;35.20;27.20
13458;DHT22;6801;53.018;11.560;2023-07-09T13:02:54;35.30;27.20
13458;DHT22;6801;53.018;11.560;2023-07-09T13:05:23;35.30;27.10
13458;DHT22;6801;53.018;11.560;2023-07-09T13:07:51;35.40;27.30
13458;DHT22;6801;53.018;11.560;2023-07-09T13:10:22;35.40;27.30
13458;DHT22;6801;53.018;11.560;2023-07-09T13:12:52;35.50;27.00
13458;DHT22;6801;53.018;11.560;2023-07-09T13:15:28;35.50;27.20
13458;DHT22;6801;53.018;11.560;2023-07-09T13:18:02;35.50;27.20
13458;DHT22;6801;53.018;11.560;2023-07-09T13:20:31;35.50;26.90
13458;DHT22;6801;53.018;11.560;2023-07-09T13:22:59;35.50;26.90
13458;DHT22;6801;53.018;11.560;2023-07-09T13:25:26;35.60;26.50
13458;DHT22;6801;53.018;11.560;2023-07-09T13:27:53;35.70;26.80
13458;DHT22;6801;53.018;11.560;2023-07-09T13:30:20;35.70;27.00
13458;DHT22;6801;53.018;11.560;2023-07-09T13:32:48;35.70;27.50
13458;DHT22;6801;53.018;11.560;2023-07-09T13:35:18;35.70;27.20
13458;DHT22;6801;53.018;11.560;2023-07-09T13:37:46;35.80;26.80
13458;DHT22;6801;53.018;11.560;2023-07-09T13:40:14;35.80;27.10
13458;DHT22;6801;53.018;11.560;2023-07-09T13:42:42;35.90;26.80
13458;DHT22;6801;53.018;11.560;2023-07-09T13:45:18;35.90;26.90
13458;DHT22;6801;53.018;11.560;2023-07-09T13:47:46;35.80;27.10
13458;DHT22;6801;53.018;11.560;2023-07-09T13:50:14;35.90;26.90
13458;DHT22;6801;53.018;11.560;2023-07-09T13:52:43;35.80;26.90
13458;DHT22;6801;53.018;11.560;2023-07-09T13:55:17;35.80;26.90
13458;DHT22;6801;53.018;11.560;2023-07-09T13:57:44;35.80;27.60
13458;DHT22;6801;53.018;11.560;2023-07-09T14:00:12;35.90;27.40
13458;DHT22;6801;53.018;11.560;2023-07-09T14:02:39;35.90;27.10
13458;DHT22;6801;53.018;11.560;2023-07-09T14:05:09;35.90;27.40
13458;DHT22;6801;53.018;11.560;2023-07-09T14:07:38;35.90;27.60
13458;DHT22;6801;53.018;11.560;2023-07-09T14:10:12;35.90;27.50
13458;DHT22;6801;53.018;11.560;2023-07-09T14:12:42;35.90;27.50
13458;DHT22;6801;53.018;11.560;2023-07-09T14:15:15;35.80;27.90
13458;DHT22;6801;53.018;11.560;2023-07-09T14:17:42;35.80;27.70
13458;DHT22;6801;53.018;11.560;2023-07-09T14:20:13;35.80;27.80
13458;DHT22;6801;53.018;11.560;2023-07-09T14:22:41;35.80;27.20
13458;DHT22;6801;53.018;11.560;2023-07-09T14:25:16;35.80;27.60
13458;DHT22;6801;53.018;11.560;2023-07-09T14:27:44;35.90;26.90
13458;DHT22;6801;53.018;11.560;2023-07-09T14:30:14;35.90;26.70
13458;DHT22;6801;53.018;11.560;2023-07-09T14:32:42;35.70;27.10
13458;DHT22;6801;53.018;11.560;2023-07-09T14:35:13;35.70;27.10
13458;DHT22;6801;53.018;11.560;2023-07-09T14:37:40;35.70;27.30
13458;DHT22;6801;53.018;11.560;2023-07-09T14:40:08;35.60;27.50
13458;DHT22;6801;53.018;11.560;2023-07-09T14:42:38;35.60;28.00
13458;DHT22;6801;53.018;11.560;2023-07-09T14:45:09;35.70;27.70
13458;DHT22;6801;53.018;11.560;2023-07-09T14:47:42;35.70;27.50
13458;DHT22;6801;53.018;11.560;2023-07-09T14:50:09;35.70;27.90
13458;DHT22;6801;53.018;11.560;2023-07-09T14:52:36;35.70;27.90
13458;DHT22;6801;53.018;11.560;2023-07-09T14:55:03;35.70;27.70
13458;DHT22;6801;53.018;11.560;2023-07-09T14:57:30;35.70;27.80
13458;DHT22;6801;53.018;11.560;2023-07-09T15:00:00;35.70;27.80
13458;DHT22;6801;53.018;11.560;2023-07-09T15:02:32;35.70;27.50
13458;DHT22;6801;53.018;11.560;2023-07-09T15:05:01;35.70;27.80
13458;DHT22;6801;53.018;11.560;2023-07-09T15:07:28;35.80;26.90
13458;DHT22;6801;53.018;11.560;2023-07-09T15:09:56;35.70;27.10
13458;DHT22;6801;53.018;11.560;2023-07-09T15:12:27;35.60;27.00
13458;DHT22;6801;53.018;11.560;2023-07-09T15:15:01;35.60;27.30
13458;DHT22;6801;53.018;11.560;2023-07-09T15:17:29;35.50;27.40
13458;DHT22;6801;53.018;11.560;2023-07-09T15:19:56;35.60;27.70
13458;DHT22;6801;53.018;11.560;2023-07-09T15:22:29;35.60;27.80
13458;DHT22;6801;53.018;11.560;2023-07-09T15:24:57;35.60;27.50
13458;DHT22;6801;53.018;11.560;2023-07-09T15:27:24;35.70;27.40
13458;DHT22;6801;53.018;11.560;2023-07-09T15:29:51;35.60;27.00
13458;DHT22;6801;53.018;11.560;2023-07-09T15:32:20;35.60;27.40
13458;DHT22;6801;53.018;11.560;2023-07-09T15:34:47;35.50;27.30
13458;DHT22;6801;53.018;11.560;2023-07-09T15:37:17;35.50;27.70
13458;DHT22;6801;53.018;11.560;2023-07-09T15:39:44;35.50;27.70
13458;DHT22;6801;53.018;11.560;2023-07-09T15:42:12;35.50;27.40